createdAt,value
2018-03-17T00:01:18.209Z,68.36
2018-03-17T00:03:46.656Z,68.39
2018-03-17T00:06:14.248Z,68.92
2018-03-17T00:08:41.813Z,68.35
2018-03-17T00:11:09.403Z,67.58
2018-03-17T00:13:37.008Z,67.87
2018-03-17T00:16:04.564Z,68.66
2018-03-17T00:18:32.117Z,67.41
2018-03-17T00:20:59.712Z,65.47
2018-03-17T00:23:27.268Z,63.86
2018-03-17T00:25:54.851Z,63.54
2018-03-17T00:28:22.395Z,64.36
2018-03-17T00:30:49.987Z,64.59
2018-03-17T00:33:17.583Z,64.58
2018-03-17T00:35:45.133Z,63.17
2018-03-17T00:38:12.719Z,63.24
2018-03-17T00:40:40.316Z,62.17
2018-03-17T00:43:07.912Z,61.20
2018-03-17T00:45:35.889Z,61.76
2018-03-17T00:48:03.439Z,61.17
2018-03-17T00:50:31.060Z,60.57
2018-03-17T00:52:58.607Z,59.91
2018-03-17T00:55:26.200Z,59.98
2018-03-17T00:57:53.852Z,60.49
2018-03-17T01:00:21.451Z,60.00
2018-03-17T01:02:49.058Z,60.16
2018-03-17T01:05:16.617Z,59.78
2018-03-17T01:07:44.203Z,59.98
2018-03-17T01:10:12.394Z,61.13
2018-03-17T01:12:39.975Z,61.66
2018-03-17T01:15:07.741Z,61.17
2018-03-17T01:17:35.506Z,63.64
2018-03-17T01:20:03.056Z,62.69
2018-03-17T01:22:31.588Z,61.73
2018-03-17T01:24:59.135Z,60.70
2018-03-17T01:27:27.253Z,61.47
2018-03-17T01:29:55.419Z,60.28
2018-03-17T01:32:22.967Z,61.75
2018-03-17T01:34:50.514Z,62.07
2018-03-17T01:37:18.365Z,62.40
2018-03-17T01:39:45.919Z,62.21
2018-03-17T01:42:13.472Z,64.23
2018-03-17T01:44:41.069Z,63.42
2018-03-17T01:47:08.660Z,62.14
2018-03-17T01:49:36.207Z,60.98
2018-03-17T01:52:04.334Z,61.34
2018-03-17T01:54:31.974Z,65.13
2018-03-17T01:56:59.599Z,65.33
2018-03-17T01:59:27.171Z,65.42
2018-03-17T02:01:54.762Z,66.51
2018-03-17T02:04:22.321Z,66.76
2018-03-17T02:06:50.020Z,68.86
2018-03-17T02:09:17.603Z,69.49
2018-03-17T02:11:46.183Z,68.66
2018-03-17T02:14:14.149Z,69.65
2018-03-17T02:16:41.744Z,69.91
2018-03-17T02:19:09.345Z,70.10
2018-03-17T02:21:36.922Z,70.05
2018-03-17T02:24:04.482Z,70.12
2018-03-17T02:26:32.396Z,69.90
2018-03-17T02:28:59.991Z,69.62
2018-03-17T02:31:27.544Z,68.34
2018-03-17T02:33:55.112Z,68.25
2018-03-17T02:36:22.698Z,66.85
2018-03-17T02:38:50.246Z,66.02
2018-03-17T02:41:17.835Z,66.85
2018-03-17T02:43:45.392Z,67.11
2018-03-17T02:46:13.250Z,67.19
2018-03-17T02:48:40.805Z,65.95
2018-03-17T02:51:08.390Z,64.44
2018-03-17T02:53:35.946Z,64.12
2018-03-17T02:56:03.535Z,67.15
2018-03-17T02:58:31.128Z,66.21
2018-03-17T03:00:58.675Z,66.16
2018-03-17T03:03:26.232Z,65.87
2018-03-17T03:05:53.828Z,64.56
2018-03-17T03:08:21.423Z,63.52
2018-03-17T03:10:48.975Z,63.05
2018-03-17T03:13:16.562Z,63.51
2018-03-17T03:15:44.120Z,63.28
2018-03-17T03:18:11.675Z,65.51
2018-03-17T03:20:39.288Z,64.62
2018-03-17T03:23:06.881Z,65.22
2018-03-17T03:25:34.431Z,65.90
2018-03-17T03:28:02.149Z,65.86
2018-03-17T03:30:30.457Z,66.49
2018-03-17T03:32:58.004Z,68.52
2018-03-17T03:35:25.560Z,67.03
2018-03-17T03:37:53.160Z,65.39
2018-03-17T03:40:20.764Z,67.06
2018-03-17T03:42:48.708Z,68.46
2018-03-17T03:45:16.586Z,67.82
2018-03-17T03:47:44.154Z,67.41
2018-03-17T03:50:12.030Z,69.20
2018-03-17T03:52:39.570Z,69.91
2018-03-17T03:55:07.155Z,70.11
2018-03-17T03:57:34.765Z,70.47
2018-03-17T04:00:02.324Z,70.17
2018-03-17T04:02:29.947Z,70.30
2018-03-17T04:04:57.488Z,71.13
2018-03-17T04:07:25.061Z,71.49
2018-03-17T04:09:52.617Z,71.02
2018-03-17T04:12:20.201Z,70.56
2018-03-17T04:14:47.739Z,70.75
2018-03-17T04:17:15.331Z,70.86
2018-03-17T04:19:42.885Z,70.44
2018-03-17T04:22:10.757Z,69.66
2018-03-17T04:24:38.897Z,68.84
2018-03-17T04:27:06.486Z,67.16
2018-03-17T04:29:34.065Z,68.06
2018-03-17T04:32:02.091Z,68.71
2018-03-17T04:34:29.627Z,69.88
2018-03-17T04:36:57.217Z,69.25
2018-03-17T04:39:25.265Z,69.38
2018-03-17T04:41:52.847Z,68.92
2018-03-17T04:44:20.437Z,66.89
2018-03-17T04:46:48.077Z,66.21
2018-03-17T04:49:15.870Z,66.40
2018-03-17T04:51:43.461Z,67.76
2018-03-17T04:54:11.056Z,67.85
2018-03-17T04:56:38.595Z,68.47
2018-03-17T04:59:06.183Z,68.33
2018-03-17T05:01:33.741Z,67.31
2018-03-17T05:04:01.356Z,66.64
2018-03-17T05:06:29.410Z,68.20
2018-03-17T05:08:56.972Z,66.93
2018-03-17T05:11:25.310Z,65.62
2018-03-17T05:13:52.892Z,64.53
2018-03-17T05:16:20.501Z,63.63
2018-03-17T05:18:48.109Z,62.72
2018-03-17T05:21:15.656Z,61.88
2018-03-17T05:23:43.217Z,62.54
2018-03-17T05:26:10.813Z,62.16
2018-03-17T05:28:38.377Z,61.33
2018-03-17T05:31:05.980Z,61.55
2018-03-17T05:33:33.832Z,62.50
2018-03-17T05:36:01.947Z,64.02
2018-03-17T05:38:29.561Z,65.80
2018-03-17T05:40:57.173Z,64.35
2018-03-17T05:43:24.748Z,66.11
2018-03-17T05:45:52.364Z,65.53
2018-03-17T05:48:19.955Z,65.24
2018-03-17T05:50:47.509Z,65.84
2018-03-17T05:53:15.111Z,65.62
2018-03-17T05:55:42.947Z,66.86
2018-03-17T05:58:10.533Z,67.46
2018-03-17T06:00:38.659Z,69.02
2018-03-17T06:03:06.224Z,68.08
2018-03-17T06:05:33.784Z,66.06
2018-03-17T06:08:01.376Z,66.79
2018-03-17T06:10:28.918Z,67.14
2018-03-17T06:12:56.521Z,67.34
2018-03-17T06:15:24.119Z,67.79
2018-03-17T06:17:51.662Z,67.73
2018-03-17T06:20:19.387Z,67.49
2018-03-17T06:22:46.987Z,65.48
2018-03-17T06:25:15.096Z,64.28
2018-03-17T06:27:42.695Z,65.47
2018-03-17T06:30:12.244Z,66.59
2018-03-17T06:32:39.840Z,66.87
2018-03-17T06:35:07.405Z,66.58
2018-03-17T06:37:35.001Z,66.83
2018-03-17T06:40:02.552Z,65.95
2018-03-17T06:42:30.169Z,65.86
2018-03-17T06:44:58.171Z,66.02
2018-03-17T06:47:26.500Z,64.52
2018-03-17T06:49:54.084Z,63.13
2018-03-17T06:52:23.315Z,63.37
2018-03-17T06:54:50.926Z,62.00
2018-03-17T06:57:18.608Z,61.26
2018-03-17T06:59:47.269Z,61.28
2018-03-17T07:02:14.864Z,61.21
2018-03-17T07:04:43.632Z,62.76
2018-03-17T07:07:11.227Z,63.18
2018-03-17T07:09:40.123Z,62.44
2018-03-17T07:12:08.672Z,60.86
2018-03-17T07:14:36.274Z,60.63
2018-03-17T07:17:03.889Z,59.49
2018-03-17T07:19:31.441Z,58.56
2018-03-17T07:21:59.028Z,58.28
2018-03-17T07:24:27.488Z,58.03
2018-03-17T07:26:55.437Z,57.13
2018-03-17T07:29:22.984Z,57.05
2018-03-17T07:31:50.535Z,56.85
2018-03-17T07:34:18.644Z,56.65
2018-03-17T07:36:46.202Z,56.23
2018-03-17T07:39:13.820Z,55.09
2018-03-17T07:41:41.736Z,56.64
2018-03-17T07:44:09.805Z,56.56
2018-03-17T07:46:37.357Z,56.17
2018-03-17T07:49:05.516Z,55.15
2018-03-17T07:51:33.101Z,54.30
2018-03-17T07:54:00.691Z,53.70
2018-03-17T07:56:28.240Z,55.07
2018-03-17T07:58:55.836Z,55.38
2018-03-17T08:01:23.397Z,55.25
2018-03-17T08:03:51.809Z,54.86
2018-03-17T08:06:19.647Z,55.12
2018-03-17T08:08:47.197Z,54.23
2018-03-17T08:11:14.904Z,54.25
2018-03-17T08:13:42.978Z,54.08
2018-03-17T08:16:10.577Z,54.47
2018-03-17T08:18:39.067Z,54.76
2018-03-17T08:21:06.628Z,54.63
2018-03-17T08:23:34.222Z,54.39
2018-03-17T08:26:01.786Z,53.95
2018-03-17T08:28:29.387Z,53.80
2018-03-17T08:30:56.949Z,53.43
2018-03-17T08:33:24.499Z,53.30
2018-03-17T08:35:53.287Z,53.15
2018-03-17T08:38:21.076Z,52.96
2018-03-17T08:40:48.800Z,52.51
2018-03-17T08:43:17.536Z,52.37
2018-03-17T08:45:45.097Z,52.26
2018-03-17T08:48:13.286Z,51.81
2018-03-17T08:50:40.841Z,51.81
2018-03-17T08:53:09.467Z,51.55
2018-03-17T08:55:37.000Z,51.54
2018-03-17T08:58:04.592Z,51.28
2018-03-17T09:00:32.200Z,51.79
2018-03-17T09:02:59.801Z,52.93
2018-03-17T09:05:30.010Z,53.43
2018-03-17T09:07:57.561Z,54.32
2018-03-17T09:10:25.990Z,54.45
2018-03-17T09:12:53.973Z,54.24
2018-03-17T09:15:23.220Z,54.02
2018-03-17T09:17:51.184Z,53.44
2018-03-17T09:20:19.249Z,53.41
2018-03-17T09:22:46.844Z,53.32
2018-03-17T09:25:14.450Z,53.26
2018-03-17T09:27:42.373Z,53.12
2018-03-17T09:30:09.954Z,52.96
2018-03-17T09:32:37.499Z,52.85
2018-03-17T09:35:05.091Z,53.42
2018-03-17T09:37:32.639Z,53.54
2018-03-17T09:40:00.249Z,53.65
2018-03-17T09:42:27.799Z,53.57
2018-03-17T09:44:55.757Z,53.67
2018-03-17T09:47:23.364Z,53.61
2018-03-17T09:49:50.921Z,53.01
2018-03-17T09:52:18.585Z,52.35
2018-03-17T09:54:46.158Z,52.24
2018-03-17T09:57:13.748Z,51.81
2018-03-17T09:59:41.313Z,51.60
2018-03-17T10:02:08.904Z,51.23
2018-03-17T10:04:37.004Z,50.82
2018-03-17T10:07:05.413Z,50.71
2018-03-17T10:09:32.977Z,50.57
2018-03-17T10:12:00.572Z,50.50
2018-03-17T10:14:28.623Z,49.88
2018-03-17T10:16:56.212Z,49.73
2018-03-17T10:19:23.817Z,49.52
2018-03-17T10:21:51.363Z,49.20
2018-03-17T10:24:18.956Z,49.12
2018-03-17T10:26:47.413Z,48.85
2018-03-17T10:29:14.973Z,48.71
2018-03-17T10:31:43.391Z,48.57
2018-03-17T10:34:10.970Z,48.58
2018-03-17T10:36:38.568Z,48.29
2018-03-17T10:39:07.456Z,48.27
2018-03-17T10:41:36.012Z,48.10
2018-03-17T10:44:03.593Z,48.01
2018-03-17T10:46:31.186Z,48.02
2018-03-17T10:48:58.746Z,48.09
2018-03-17T10:51:26.357Z,47.95
2018-03-17T10:53:53.900Z,47.96
2018-03-17T10:56:21.533Z,47.93
2018-03-17T10:58:49.152Z,47.91
2018-03-17T11:01:20.515Z,47.80
2018-03-17T11:03:48.811Z,47.87
2018-03-17T11:06:16.459Z,47.97
2018-03-17T11:08:44.390Z,47.90
2018-03-17T11:11:12.815Z,47.94
2018-03-17T11:13:40.372Z,47.93
2018-03-17T11:16:07.971Z,47.86
2018-03-17T11:18:35.533Z,47.71
2018-03-17T11:21:03.124Z,47.79
2018-03-17T11:23:31.705Z,47.92
2018-03-17T11:26:00.139Z,47.81
2018-03-17T11:28:27.691Z,47.85
2018-03-17T11:30:55.260Z,47.94
2018-03-17T11:33:22.865Z,48.06
2018-03-17T11:35:50.451Z,48.10
2018-03-17T11:38:18.022Z,48.38
2018-03-17T11:40:45.688Z,48.60
2018-03-17T11:43:13.229Z,48.76
2018-03-17T11:45:40.788Z,48.51
2018-03-17T11:48:08.524Z,48.95
2018-03-17T11:50:36.084Z,48.69
2018-03-17T11:53:03.671Z,48.74
2018-03-17T11:55:31.289Z,49.05
2018-03-17T11:57:58.837Z,49.04
2018-03-17T12:00:26.424Z,49.29
2018-03-17T12:02:55.346Z,49.25
2018-03-17T12:05:23.782Z,49.33
2018-03-17T12:07:51.374Z,49.57
2018-03-17T12:10:19.037Z,49.69
2018-03-17T12:12:46.877Z,50.01
2018-03-17T12:15:14.428Z,50.10
2018-03-17T12:17:42.915Z,50.23
2018-03-17T12:20:10.500Z,50.32
2018-03-17T12:22:38.060Z,50.47
2018-03-17T12:25:06.502Z,50.43
2018-03-17T12:27:34.109Z,50.60
2018-03-17T12:30:01.730Z,50.76
2018-03-17T12:32:29.320Z,50.76
2018-03-17T12:34:56.885Z,50.85
2018-03-17T12:37:24.491Z,50.92
2018-03-17T12:39:52.144Z,51.06
2018-03-17T12:42:19.704Z,51.08
2018-03-17T12:44:47.256Z,51.14
2018-03-17T12:47:14.853Z,51.18
2018-03-17T12:49:42.413Z,51.24
2018-03-17T12:52:10.017Z,51.57
2018-03-17T12:54:37.560Z,51.69
2018-03-17T12:57:05.471Z,51.94
2018-03-17T12:59:33.019Z,52.11
2018-03-17T13:02:00.614Z,52.19
2018-03-17T13:04:29.011Z,52.25
2018-03-17T13:06:56.603Z,52.35
2018-03-17T13:09:25.123Z,52.56
2018-03-17T13:11:53.207Z,52.75
2018-03-17T13:14:21.513Z,52.75
2018-03-17T13:16:49.113Z,53.17
2018-03-17T13:19:28.684Z,53.11
2018-03-17T13:21:57.129Z,52.83
2018-03-17T13:24:25.166Z,52.82
2018-03-17T13:27:04.630Z,53.00
2018-03-17T13:29:32.480Z,53.29
2018-03-17T13:32:00.033Z,53.31
2018-03-17T13:34:28.437Z,53.25
2018-03-17T13:37:07.774Z,53.21
2018-03-17T13:39:35.380Z,53.41
2018-03-17T13:42:03.823Z,53.31
2018-03-17T13:44:31.409Z,53.22
2018-03-17T13:46:59.935Z,53.29
2018-03-17T13:49:28.176Z,53.37
2018-03-17T13:51:56.512Z,53.47
2018-03-17T13:54:24.099Z,53.44
2018-03-17T13:56:51.684Z,53.48
2018-03-17T13:59:19.293Z,53.67
2018-03-17T14:01:47.864Z,53.79
2018-03-17T14:04:17.081Z,53.79
2018-03-17T14:06:44.656Z,53.73
2018-03-17T14:09:12.251Z,53.81
2018-03-17T14:11:39.853Z,53.93
2018-03-17T14:14:07.402Z,53.89
2018-03-17T14:16:35.201Z,53.83
2018-03-17T14:19:05.820Z,53.78
2018-03-17T14:21:33.411Z,53.86
2018-03-17T14:24:00.963Z,54.02
2018-03-17T14:26:28.544Z,54.11
2018-03-17T14:28:56.082Z,54.05
2018-03-17T14:31:23.692Z,54.01
2018-03-17T14:33:51.564Z,54.17
2018-03-17T14:36:19.122Z,54.26
2018-03-17T14:38:46.720Z,54.19
2018-03-17T14:41:14.273Z,54.19
2018-03-17T14:43:41.868Z,54.23
2018-03-17T14:46:10.340Z,54.43
2018-03-17T14:48:37.927Z,54.51
2018-03-17T14:51:07.421Z,54.64
2018-03-17T14:53:35.015Z,54.58
2018-03-17T14:56:02.625Z,54.60
2018-03-17T14:58:30.169Z,54.43
2018-03-17T15:00:57.712Z,54.41
2018-03-17T15:03:25.308Z,54.31
2018-03-17T15:05:54.036Z,54.37
2018-03-17T15:08:21.640Z,54.40
2018-03-17T15:10:50.089Z,54.30
2018-03-17T15:13:17.716Z,54.19
2018-03-17T15:15:45.312Z,54.21
2018-03-17T15:18:13.009Z,54.33
2018-03-17T15:20:43.131Z,54.41
2018-03-17T15:23:10.740Z,54.41
2018-03-17T15:25:38.357Z,54.48
2018-03-17T15:28:05.920Z,54.63
2018-03-17T15:30:33.503Z,54.73
2018-03-17T15:33:01.157Z,54.88
2018-03-17T15:35:29.273Z,54.91
2018-03-17T15:37:56.864Z,55.04
2018-03-17T15:40:24.447Z,55.13
2018-03-17T15:42:53.113Z,55.19
2018-03-17T15:45:20.712Z,55.28
2018-03-17T15:47:48.314Z,55.24
2018-03-17T15:50:15.921Z,55.26
2018-03-17T15:52:43.481Z,55.22
2018-03-17T15:55:11.080Z,55.25
2018-03-17T15:57:38.644Z,55.50
2018-03-17T16:00:06.247Z,55.64
2018-03-17T16:02:34.347Z,55.60
2018-03-17T16:05:01.940Z,55.64
2018-03-17T16:07:29.506Z,55.70
2018-03-17T16:09:57.131Z,55.99
2018-03-17T16:12:24.697Z,56.15
2018-03-17T16:14:52.244Z,56.25
2018-03-17T16:17:19.841Z,56.25
2018-03-17T16:19:48.015Z,56.29
2018-03-17T16:22:15.609Z,56.19
2018-03-17T16:24:43.178Z,56.14
2018-03-17T16:27:11.669Z,56.03
2018-03-17T16:29:39.213Z,56.48
2018-03-17T16:32:07.188Z,56.44
2018-03-17T16:34:34.754Z,56.77
2018-03-17T16:37:02.352Z,56.76
2018-03-17T16:39:29.921Z,56.87
2018-03-17T16:41:58.311Z,56.64
2018-03-17T16:44:26.469Z,56.56
2018-03-17T16:46:54.069Z,55.82
2018-03-17T16:49:22.592Z,55.80
2018-03-17T16:51:50.159Z,54.47
2018-03-17T16:54:17.740Z,50.68
2018-03-17T16:56:45.352Z,50.20
2018-03-17T16:59:12.952Z,46.74
2018-03-17T17:01:40.537Z,41.48
2018-03-17T17:04:08.667Z,39.71
2018-03-17T17:06:36.634Z,39.35
2018-03-17T17:09:04.900Z,38.73
2018-03-17T17:11:32.457Z,38.07
2018-03-17T17:14:00.030Z,38.86
2018-03-17T17:16:27.624Z,37.85
2018-03-17T17:18:55.177Z,35.88
2018-03-17T17:21:22.781Z,36.52
2018-03-17T17:23:50.814Z,36.40
2018-03-17T17:26:18.442Z,35.89
2018-03-17T17:28:46.321Z,35.59
2018-03-17T17:31:14.664Z,35.78
2018-03-17T17:33:42.270Z,35.62
2018-03-17T17:36:10.222Z,35.60
2018-03-17T17:38:38.526Z,35.75
2018-03-17T17:41:06.972Z,36.29
2018-03-17T17:43:34.568Z,37.28
2018-03-17T17:46:02.206Z,36.39
2018-03-17T17:48:29.800Z,36.96
2018-03-17T17:50:57.356Z,37.31
2018-03-17T17:53:24.907Z,36.70
2018-03-17T17:55:52.510Z,37.90
2018-03-17T17:58:20.591Z,37.51
2018-03-17T18:00:48.498Z,37.53
2018-03-17T18:03:17.181Z,37.98
2018-03-17T18:05:45.874Z,38.56
2018-03-17T18:08:14.259Z,37.90
2018-03-17T18:10:42.057Z,38.63
2018-03-17T18:13:11.500Z,37.90
2018-03-17T18:15:40.252Z,38.20
2018-03-17T18:18:09.084Z,38.46
2018-03-17T18:20:38.560Z,39.02
2018-03-17T18:23:07.698Z,38.93
2018-03-17T18:25:35.797Z,38.47
2018-03-17T18:28:04.800Z,37.92
2018-03-17T18:30:33.714Z,37.92
2018-03-17T18:33:02.069Z,38.08
2018-03-17T18:35:30.332Z,38.36
2018-03-17T18:37:58.525Z,38.88
2018-03-17T18:40:27.185Z,39.51
2018-03-17T18:42:55.959Z,39.85
2018-03-17T18:45:24.105Z,40.38
2018-03-17T18:47:52.686Z,40.12
2018-03-17T18:50:20.649Z,40.42
2018-03-17T18:52:49.405Z,40.74
2018-03-17T18:55:17.578Z,41.11
2018-03-17T18:57:45.460Z,41.53
2018-03-17T19:00:13.052Z,41.61
2018-03-17T19:02:41.840Z,41.31
2018-03-17T19:05:09.463Z,41.79
2018-03-17T19:07:37.775Z,42.29
2018-03-17T19:10:05.603Z,41.86
2018-03-17T19:12:33.927Z,41.67
2018-03-17T19:15:02.035Z,41.89
2018-03-17T19:17:29.627Z,40.71
2018-03-17T19:19:57.535Z,41.55
2018-03-17T19:22:25.419Z,41.77
2018-03-17T19:24:53.051Z,41.99
2018-03-17T19:27:21.420Z,41.72
2018-03-17T19:29:49.149Z,41.46
2018-03-17T19:32:17.149Z,41.65
2018-03-17T19:34:44.829Z,41.85
2018-03-17T19:37:15.727Z,42.08
2018-03-17T19:39:43.312Z,42.72
2018-03-17T19:42:10.873Z,42.74
2018-03-17T19:44:39.763Z,42.77
2018-03-17T19:47:08.155Z,43.49
2018-03-17T19:49:35.983Z,43.62
2018-03-17T19:52:03.965Z,43.91
2018-03-17T19:54:32.458Z,45.25
2018-03-17T19:57:00.510Z,44.87
2018-03-17T19:59:29.475Z,46.11
2018-03-17T20:01:57.661Z,45.83
2018-03-17T20:04:25.462Z,45.36
2018-03-17T20:06:53.021Z,42.66
2018-03-17T20:09:20.778Z,42.45
2018-03-17T20:11:48.885Z,41.95
2018-03-17T20:14:16.451Z,42.94
2018-03-17T20:16:44.532Z,44.52
2018-03-17T20:19:12.649Z,44.58
2018-03-17T20:21:40.233Z,44.57
2018-03-17T20:24:07.842Z,44.76
2018-03-17T20:26:36.009Z,45.15
2018-03-17T20:29:04.784Z,45.35
2018-03-17T20:31:32.849Z,45.34
2018-03-17T20:34:00.445Z,46.47
2018-03-17T20:36:28.507Z,46.68
2018-03-17T20:38:56.126Z,47.82
2018-03-17T20:41:24.989Z,48.01
2018-03-17T20:43:53.760Z,47.55
2018-03-17T20:46:21.306Z,47.76
2018-03-17T20:48:49.604Z,48.19
2018-03-17T20:51:17.214Z,48.18
2018-03-17T20:53:44.768Z,47.98
2018-03-17T20:56:12.332Z,47.51
2018-03-17T20:58:39.944Z,47.42
2018-03-17T21:01:08.733Z,47.47
2018-03-17T21:03:36.332Z,47.23
2018-03-17T21:06:03.875Z,44.83
2018-03-17T21:08:32.438Z,45.95
2018-03-17T21:11:00.630Z,45.79
2018-03-17T21:13:29.595Z,46.23
2018-03-17T21:15:57.185Z,45.91
2018-03-17T21:18:24.764Z,46.52
2018-03-17T21:20:52.625Z,46.44
2018-03-17T21:23:20.169Z,46.74
2018-03-17T21:25:48.052Z,45.50
2018-03-17T21:28:16.139Z,44.30
2018-03-17T21:30:43.731Z,45.20
2018-03-17T21:33:11.276Z,45.16
2018-03-17T21:35:39.577Z,45.97
2018-03-17T21:38:07.116Z,43.49
2018-03-17T21:40:34.654Z,42.99
2018-03-17T21:43:02.244Z,42.35
2018-03-17T21:45:29.804Z,42.17
2018-03-17T21:47:57.396Z,44.14
2018-03-17T21:50:25.005Z,44.33
2018-03-17T21:52:52.547Z,43.89
2018-03-17T21:55:20.135Z,44.27
2018-03-17T21:57:47.695Z,44.11
2018-03-17T22:00:15.795Z,43.56
2018-03-17T22:02:48.255Z,44.14
2018-03-17T22:05:15.854Z,43.84
2018-03-17T22:07:43.449Z,43.02
2018-03-17T22:10:11.383Z,42.47
2018-03-17T22:12:39.816Z,42.60
2018-03-17T22:15:07.915Z,42.43
2018-03-17T22:17:35.474Z,46.51
2018-03-17T22:20:03.072Z,45.96
2018-03-17T22:22:30.667Z,48.67
2018-03-17T22:24:58.214Z,47.28
2018-03-17T22:27:25.765Z,48.27
2018-03-17T22:29:53.359Z,48.49
2018-03-17T22:32:20.910Z,49.63
2018-03-17T22:34:48.455Z,50.17
2018-03-17T22:37:16.044Z,49.81
2018-03-17T22:39:43.593Z,49.48
2018-03-17T22:42:11.195Z,49.70
2018-03-17T22:44:38.752Z,51.08
2018-03-17T22:47:07.152Z,50.15
2018-03-17T22:49:34.761Z,51.59
2018-03-17T22:52:03.284Z,51.14
2018-03-17T22:54:30.873Z,50.80
2018-03-17T22:56:58.426Z,51.33
2018-03-17T22:59:26.021Z,53.47
2018-03-17T23:01:55.833Z,53.19
2018-03-17T23:04:23.514Z,52.69
2018-03-17T23:06:51.055Z,53.48
2018-03-17T23:09:18.657Z,53.25
2018-03-17T23:11:47.219Z,53.85
2018-03-17T23:14:14.759Z,53.45
2018-03-17T23:16:42.374Z,53.22
2018-03-17T23:19:09.924Z,53.03
2018-03-17T23:21:37.524Z,52.64
2018-03-17T23:24:05.979Z,52.46
2018-03-17T23:26:33.577Z,51.94
2018-03-17T23:29:01.160Z,52.08
2018-03-17T23:31:30.723Z,52.01
2018-03-17T23:33:58.788Z,52.20
2018-03-17T23:36:27.329Z,51.93
2018-03-17T23:38:55.126Z,52.21
2018-03-17T23:41:22.707Z,51.88
2018-03-17T23:43:50.302Z,52.46
2018-03-17T23:46:17.868Z,52.34
2018-03-17T23:48:45.484Z,52.42
2018-03-17T23:51:13.147Z,52.16
2018-03-17T23:53:40.750Z,52.39
2018-03-17T23:56:08.559Z,53.52
2018-03-17T23:58:36.131Z,53.32
